createdAt,value
2018-11-21T00:00:29.944Z,89.85
2018-11-21T00:01:29.920Z,89.85
2018-11-21T00:02:29.937Z,89.39
2018-11-21T00:03:29.919Z,89.54
2018-11-21T00:04:29.939Z,89.75
2018-11-21T00:05:29.888Z,89.81
2018-11-21T00:06:29.895Z,89.60
2018-11-21T00:07:29.854Z,89.50
2018-11-21T00:08:29.862Z,89.54
2018-11-21T00:09:29.881Z,89.50
2018-11-21T00:10:29.942Z,89.43
2018-11-21T00:11:29.808Z,88.87
2018-11-21T00:12:29.817Z,89.08
2018-11-21T00:13:29.789Z,88.66
2018-11-21T00:14:29.773Z,88.98
2018-11-21T00:15:29.769Z,89.29
2018-11-21T00:16:29.816Z,88.87
2018-11-21T00:17:29.737Z,88.91
2018-11-21T00:18:29.740Z,88.91
2018-11-21T00:19:29.726Z,88.98
2018-11-21T00:20:29.736Z,89.32
2018-11-21T00:21:29.694Z,88.70
2018-11-21T00:22:29.763Z,88.76
2018-11-21T00:23:29.699Z,88.98
2018-11-21T00:24:29.675Z,89.12
2018-11-21T00:25:29.651Z,89.08
2018-11-21T00:26:29.668Z,89.39
2018-11-21T00:27:29.647Z,89.18
2018-11-21T00:28:29.682Z,89.08
2018-11-21T00:29:29.626Z,89.18
2018-11-21T00:30:29.662Z,88.87
2018-11-21T00:31:29.631Z,89.29
2018-11-21T00:32:29.605Z,89.29
2018-11-21T00:33:29.575Z,89.08
2018-11-21T00:34:29.604Z,89.18
2018-11-21T00:35:29.585Z,88.98
2018-11-21T00:36:29.559Z,88.87
2018-11-21T00:37:29.526Z,88.66
2018-11-21T00:38:29.536Z,88.87
2018-11-21T00:39:29.506Z,88.87
2018-11-21T00:40:29.532Z,88.98
2018-11-21T00:41:29.487Z,89.18
2018-11-21T00:42:29.477Z,89.29
2018-11-21T00:43:29.471Z,88.76
2018-11-21T00:44:29.459Z,88.98
2018-11-21T00:45:29.449Z,89.08
2018-11-21T00:46:29.498Z,88.73
2018-11-21T00:47:29.443Z,89.18
2018-11-21T00:48:29.443Z,89.18
2018-11-21T00:49:29.398Z,89.08
2018-11-21T00:50:29.412Z,88.98
2018-11-21T00:51:29.433Z,89.08
2018-11-21T00:52:29.417Z,89.29
2018-11-21T00:53:29.370Z,88.98
2018-11-21T00:54:29.368Z,89.45
2018-11-21T00:55:29.340Z,89.25
2018-11-21T00:56:29.360Z,88.98
2018-11-21T00:57:29.329Z,88.83
2018-11-21T00:58:29.366Z,89.25
2018-11-21T00:59:29.299Z,88.62
2018-11-21T01:00:29.292Z,89.25
2018-11-21T01:01:29.274Z,89.14
2018-11-21T01:02:29.265Z,88.52
2018-11-21T01:03:29.282Z,88.31
2018-11-21T01:04:29.289Z,88.48
2018-11-21T01:05:29.240Z,87.96
2018-11-21T01:06:29.243Z,87.75
2018-11-21T01:07:29.226Z,87.75
2018-11-21T01:08:29.200Z,87.54
2018-11-21T01:09:29.223Z,88.37
2018-11-21T01:10:29.216Z,87.75
2018-11-21T01:11:29.165Z,87.54
2018-11-21T01:12:29.152Z,87.85
2018-11-21T01:13:29.162Z,87.85
2018-11-21T01:14:29.140Z,87.54
2018-11-21T01:15:29.171Z,87.54
2018-11-21T01:16:29.162Z,88.17
2018-11-21T01:17:29.124Z,87.65
2018-11-21T01:18:29.094Z,87.75
2018-11-21T01:19:29.074Z,87.65
2018-11-21T01:20:29.078Z,87.85
2018-11-21T01:21:29.070Z,88.17
2018-11-21T01:22:29.101Z,87.54
2018-11-21T01:23:29.038Z,87.85
2018-11-21T01:24:29.031Z,87.85
2018-11-21T01:25:29.026Z,87.65
2018-11-21T01:26:29.008Z,87.85
2018-11-21T01:27:28.999Z,87.85
2018-11-21T01:28:29.064Z,87.85
2018-11-21T01:29:28.975Z,87.85
2018-11-21T01:30:28.980Z,87.85
2018-11-21T01:31:28.980Z,87.33
2018-11-21T01:32:28.945Z,88.37
2018-11-21T01:33:28.948Z,88.42
2018-11-21T01:34:28.965Z,88.31
2018-11-21T01:35:28.920Z,88.52
2018-11-21T01:36:28.909Z,88.73
2018-11-21T01:37:28.901Z,89.35
2018-11-21T01:38:28.881Z,89.45
2018-11-21T01:39:28.899Z,89.45
2018-11-21T01:40:28.897Z,89.35
2018-11-21T01:41:28.848Z,89.04
2018-11-21T01:42:28.856Z,89.14
2018-11-21T01:43:28.824Z,88.83
2018-11-21T01:44:28.810Z,89.04
2018-11-21T01:45:28.798Z,89.25
2018-11-21T01:46:28.867Z,89.04
2018-11-21T01:47:28.779Z,88.83
2018-11-21T01:48:28.776Z,89.04
2018-11-21T01:49:28.794Z,88.73
2018-11-21T01:50:28.753Z,88.68
2018-11-21T01:51:28.755Z,89.04
2018-11-21T01:52:28.778Z,88.62
2018-11-21T01:53:28.715Z,89.04
2018-11-21T01:54:28.719Z,88.93
2018-11-21T01:55:28.700Z,89.04
2018-11-21T01:56:28.703Z,89.25
2018-11-21T01:57:28.736Z,88.83
2018-11-21T01:58:28.712Z,88.83
2018-11-21T01:59:28.651Z,88.93
2018-11-21T02:00:28.680Z,88.83
2018-11-21T02:01:28.631Z,88.83
2018-11-21T02:02:28.632Z,89.25
2018-11-21T02:03:28.619Z,89.35
2018-11-21T02:04:28.643Z,89.14
2018-11-21T02:05:28.603Z,89.25
2018-11-21T02:06:28.581Z,89.04
2018-11-21T02:07:28.602Z,88.83
2018-11-21T02:08:28.561Z,89.00
2018-11-21T02:09:28.549Z,88.79
2018-11-21T02:10:28.586Z,89.41
2018-11-21T02:11:28.539Z,89.20
2018-11-21T02:12:28.523Z,89.31
2018-11-21T02:13:28.529Z,89.20
2018-11-21T02:14:28.493Z,89.00
2018-11-21T02:15:28.494Z,88.68
2018-11-21T02:16:28.493Z,89.20
2018-11-21T02:17:28.458Z,89.00
2018-11-21T02:18:28.449Z,88.93
2018-11-21T02:19:28.439Z,89.04
2018-11-21T02:20:28.456Z,88.93
2018-11-21T02:21:28.422Z,89.04
2018-11-21T02:22:28.488Z,89.14
2018-11-21T02:23:28.402Z,89.45
2018-11-21T02:24:28.420Z,89.45
2018-11-21T02:25:28.384Z,89.66
2018-11-21T02:26:28.372Z,89.20
2018-11-21T02:27:28.358Z,89.31
2018-11-21T02:28:28.396Z,89.10
2018-11-21T02:29:28.348Z,89.35
2018-11-21T02:30:28.320Z,89.31
2018-11-21T02:31:28.333Z,89.31
2018-11-21T02:32:28.311Z,89.10
2018-11-21T02:33:28.303Z,88.58
2018-11-21T02:34:28.328Z,88.58
2018-11-21T02:35:28.270Z,88.68
2018-11-21T02:36:28.269Z,89.00
2018-11-21T02:37:28.247Z,89.20
2018-11-21T02:38:28.261Z,88.89
2018-11-21T02:39:28.238Z,88.58
2018-11-21T02:40:28.280Z,89.10
2018-11-21T02:41:28.228Z,89.00
2018-11-21T02:42:28.208Z,89.20
2018-11-21T02:43:28.198Z,89.00
2018-11-21T02:44:28.182Z,89.10
2018-11-21T02:45:28.197Z,89.04
2018-11-21T02:46:28.213Z,89.41
2018-11-21T02:47:28.148Z,89.52
2018-11-21T02:48:28.151Z,89.35
2018-11-21T02:49:28.125Z,89.62
2018-11-21T02:50:28.106Z,89.66
2018-11-21T02:51:28.116Z,89.25
2018-11-21T02:52:28.121Z,89.31
2018-11-21T02:53:28.077Z,89.41
2018-11-21T02:54:28.100Z,89.83
2018-11-21T02:55:28.063Z,88.79
2018-11-21T02:56:28.047Z,89.10
2018-11-21T02:57:28.052Z,88.89
2018-11-21T02:58:28.072Z,89.20
2018-11-21T02:59:28.016Z,88.79
2018-11-21T03:00:28.015Z,89.00
2018-11-21T03:01:28.039Z,89.41
2018-11-21T03:02:27.983Z,89.35
2018-11-21T03:03:27.977Z,89.87
2018-11-21T03:04:27.999Z,89.31
2018-11-21T03:05:27.953Z,89.56
2018-11-21T03:06:27.970Z,89.87
2018-11-21T03:07:27.945Z,90.08
2018-11-21T03:08:27.923Z,90.12
2018-11-21T03:09:27.902Z,90.64
2018-11-21T03:10:27.948Z,90.81
2018-11-21T03:11:27.890Z,90.91
2018-11-21T03:12:27.886Z,90.95
2018-11-21T03:13:28.602Z,90.95
2018-11-21T03:14:27.852Z,90.91
2018-11-21T03:15:27.857Z,90.39
2018-11-21T03:16:28.044Z,90.33
2018-11-21T03:17:27.819Z,90.60
2018-11-21T03:18:27.829Z,90.95
2018-11-21T03:19:27.827Z,90.95
2018-11-21T03:20:27.793Z,90.95
2018-11-21T03:21:27.781Z,90.81
2018-11-21T03:22:27.816Z,90.44
2018-11-21T03:23:27.765Z,90.64
2018-11-21T03:24:27.750Z,90.85
2018-11-21T03:25:27.735Z,90.85
2018-11-21T03:26:27.725Z,91.06
2018-11-21T03:27:27.725Z,90.29
2018-11-21T03:28:27.758Z,90.12
2018-11-21T03:29:27.713Z,90.95
2018-11-21T03:30:27.682Z,91.00
2018-11-21T03:31:27.680Z,90.95
2018-11-21T03:32:27.661Z,90.75
2018-11-21T03:33:27.667Z,90.64
2018-11-21T03:34:27.765Z,90.64
2018-11-21T03:35:27.634Z,90.85
2018-11-21T03:36:27.636Z,91.00
2018-11-21T03:37:27.634Z,90.68
2018-11-21T03:38:27.601Z,91.10
2018-11-21T03:39:27.599Z,90.89
2018-11-21T03:40:27.619Z,90.89
2018-11-21T03:41:27.573Z,90.68
2018-11-21T03:42:27.569Z,91.00
2018-11-21T03:43:27.551Z,91.00
2018-11-21T03:44:27.528Z,91.25
2018-11-21T03:45:27.550Z,91.10
2018-11-21T03:46:27.557Z,91.66
2018-11-21T03:47:27.504Z,91.97
2018-11-21T03:48:27.490Z,91.66
2018-11-21T03:49:27.495Z,91.97
2018-11-21T03:50:27.477Z,92.18
2018-11-21T03:51:27.470Z,92.50
2018-11-21T03:52:27.509Z,92.08
2018-11-21T03:53:27.471Z,91.97
2018-11-21T03:54:27.470Z,92.18
2018-11-21T03:55:27.424Z,91.97
2018-11-21T03:56:27.414Z,92.81
2018-11-21T03:57:27.422Z,93.02
2018-11-21T03:58:27.453Z,92.81
2018-11-21T03:59:27.392Z,92.50
2018-11-21T04:00:27.386Z,92.18
2018-11-21T04:01:27.352Z,92.50
2018-11-21T04:02:27.352Z,92.91
2018-11-21T04:03:27.354Z,92.81
2018-11-21T04:04:27.383Z,92.91
2018-11-21T04:05:27.308Z,92.60
2018-11-21T04:06:27.304Z,92.81
2018-11-21T04:07:27.292Z,92.60
2018-11-21T04:08:27.276Z,92.60
2018-11-21T04:09:27.264Z,92.71
2018-11-21T04:10:27.321Z,92.71
2018-11-21T04:11:27.253Z,92.71
2018-11-21T04:12:27.274Z,93.12
2018-11-21T04:13:27.229Z,93.02
2018-11-21T04:14:27.214Z,93.02
2018-11-21T04:15:27.205Z,92.60
2018-11-21T04:16:27.229Z,92.50
2018-11-21T04:17:27.185Z,92.60
2018-11-21T04:18:27.248Z,92.60
2018-11-21T04:19:27.166Z,92.50
2018-11-21T04:20:27.168Z,93.12
2018-11-21T04:21:27.179Z,92.85
2018-11-21T04:22:27.216Z,92.81
2018-11-21T04:23:27.148Z,93.12
2018-11-21T04:24:27.130Z,92.60
2018-11-21T04:25:27.095Z,92.91
2018-11-21T04:26:27.112Z,92.81
2018-11-21T04:27:27.089Z,92.75
2018-11-21T04:28:27.119Z,92.50
2018-11-21T04:29:27.074Z,92.65
2018-11-21T04:30:27.076Z,92.85
2018-11-21T04:31:27.033Z,92.85
2018-11-21T04:32:27.031Z,93.16
2018-11-21T04:33:27.029Z,93.27
2018-11-21T04:34:27.094Z,92.96
2018-11-21T04:35:27.005Z,93.16
2018-11-21T04:36:27.017Z,93.06
2018-11-21T04:37:27.008Z,93.27
2018-11-21T04:38:26.975Z,92.96
2018-11-21T04:39:26.962Z,93.48
2018-11-21T04:40:26.996Z,92.85
2018-11-21T04:41:27.057Z,93.37
2018-11-21T04:42:26.922Z,93.79
2018-11-21T04:43:26.915Z,93.59
2018-11-21T04:44:26.911Z,93.90
2018-11-21T04:45:26.913Z,93.79
2018-11-21T04:46:26.998Z,93.69
2018-11-21T04:47:26.870Z,93.69
2018-11-21T04:48:26.871Z,93.90
2018-11-21T04:49:26.841Z,93.65
2018-11-21T04:50:26.866Z,93.90
2018-11-21T04:51:26.826Z,93.69
2018-11-21T04:52:26.844Z,93.65
2018-11-21T04:53:28.049Z,93.65
2018-11-21T04:54:26.789Z,93.79
2018-11-21T04:55:26.796Z,93.79
2018-11-21T04:56:26.765Z,93.54
2018-11-21T04:57:26.789Z,93.90
2018-11-21T04:58:26.812Z,94.10
2018-11-21T04:59:26.752Z,94.00
2018-11-21T05:00:26.729Z,94.00
2018-11-21T05:01:26.716Z,94.21
2018-11-21T05:02:26.704Z,93.90
2018-11-21T05:03:26.725Z,94.00
2018-11-21T05:04:26.717Z,94.35
2018-11-21T05:05:26.674Z,94.57
2018-11-21T05:06:26.674Z,94.35
2018-11-21T05:07:26.674Z,94.57
2018-11-21T05:08:26.649Z,93.94
2018-11-21T05:09:26.637Z,94.46
2018-11-21T05:10:26.668Z,94.46
2018-11-21T05:11:26.629Z,94.46
2018-11-21T05:12:26.613Z,94.67
2018-11-21T05:13:26.582Z,94.57
2018-11-21T05:14:26.578Z,94.67
2018-11-21T05:15:26.579Z,94.35
2018-11-21T05:16:26.595Z,94.57
2018-11-21T05:17:26.544Z,94.57
2018-11-21T05:18:26.538Z,94.46
2018-11-21T05:19:26.517Z,94.04
2018-11-21T05:20:26.517Z,94.46
2018-11-21T05:21:26.505Z,94.57
2018-11-21T05:22:26.530Z,94.67
2018-11-21T05:23:26.480Z,94.25
2018-11-21T05:24:26.473Z,94.15
2018-11-21T05:25:26.458Z,93.94
2018-11-21T05:26:26.490Z,93.84
2018-11-21T05:27:26.443Z,93.73
2018-11-21T05:28:26.480Z,93.73
2018-11-21T05:29:26.438Z,93.73
2018-11-21T05:30:26.421Z,93.73
2018-11-21T05:31:26.408Z,93.84
2018-11-21T05:32:26.399Z,93.84
2018-11-21T05:33:26.415Z,93.63
2018-11-21T05:34:26.409Z,94.15
2018-11-21T05:35:26.351Z,93.52
2018-11-21T05:36:26.337Z,93.94
2018-11-21T05:37:26.535Z,93.73
2018-11-21T05:38:26.317Z,93.73
2018-11-21T05:39:26.306Z,93.46
2018-11-21T05:40:26.352Z,93.77
2018-11-21T05:41:26.290Z,93.46
2018-11-21T05:42:26.283Z,93.77
2018-11-21T05:43:26.270Z,93.67
2018-11-21T05:44:31.300Z,93.46
2018-11-21T05:45:26.239Z,93.82
2018-11-21T05:46:26.299Z,94.23
2018-11-21T05:47:26.252Z,94.55
2018-11-21T05:48:26.220Z,94.65
2018-11-21T05:49:26.206Z,94.86
2018-11-21T05:50:26.233Z,95.28
2018-11-21T05:51:26.186Z,95.28
2018-11-21T05:52:26.219Z,95.28
2018-11-21T05:53:26.177Z,95.21
2018-11-21T05:54:26.151Z,95.17
2018-11-21T05:55:26.143Z,95.32
2018-11-21T05:56:26.129Z,95.43
2018-11-21T05:57:26.126Z,95.32
2018-11-21T05:58:26.147Z,95.74
2018-11-21T05:59:26.092Z,95.80
2018-11-21T06:00:26.100Z,96.33
2018-11-21T06:01:26.100Z,96.22
2018-11-21T06:02:26.070Z,96.43
2018-11-21T06:03:26.067Z,96.01
2018-11-21T06:04:26.074Z,95.70
2018-11-21T06:05:26.033Z,95.86
2018-11-21T06:06:26.025Z,95.76
2018-11-21T06:07:26.016Z,95.86
2018-11-21T06:08:26.005Z,95.70
2018-11-21T06:09:26.654Z,95.86
2018-11-21T06:10:26.028Z,95.97
2018-11-21T06:11:25.973Z,95.34
2018-11-21T06:12:25.965Z,95.44
2018-11-21T06:13:25.969Z,95.65
2018-11-21T06:14:25.944Z,95.55
2018-11-21T06:15:25.926Z,95.44
2018-11-21T06:16:25.964Z,95.23
2018-11-21T06:17:25.909Z,95.34
2018-11-21T06:18:25.904Z,94.78
2018-11-21T06:19:25.880Z,94.78
2018-11-21T06:20:25.881Z,95.03
2018-11-21T06:21:25.866Z,94.46
2018-11-21T06:22:25.904Z,94.71
2018-11-21T06:23:25.842Z,94.57
2018-11-21T06:24:25.830Z,94.71
2018-11-21T06:25:25.850Z,94.67
2018-11-21T06:26:25.811Z,94.78
2018-11-21T06:27:25.793Z,94.78
2018-11-21T06:28:25.848Z,94.57
2018-11-21T06:29:25.779Z,94.67
2018-11-21T06:30:25.788Z,94.40
2018-11-21T06:31:25.757Z,94.71
2018-11-21T06:32:25.751Z,94.46
2018-11-21T06:33:25.754Z,94.57
2018-11-21T06:34:29.097Z,94.50
2018-11-21T06:35:25.713Z,94.67
2018-11-21T06:36:25.704Z,94.98
2018-11-21T06:37:25.690Z,94.67
2018-11-21T06:38:25.685Z,94.57
2018-11-21T06:39:25.700Z,94.61
2018-11-21T06:40:25.708Z,94.67
2018-11-21T06:41:25.660Z,94.71
2018-11-21T06:42:25.648Z,94.61
2018-11-21T06:43:25.645Z,94.46
2018-11-21T06:44:25.619Z,94.15
2018-11-21T06:45:25.613Z,94.15
2018-11-21T06:46:25.649Z,94.15
2018-11-21T06:47:25.586Z,94.25
2018-11-21T06:48:25.585Z,93.94
2018-11-21T06:49:25.604Z,94.46
2018-11-21T06:50:25.574Z,94.57
2018-11-21T06:51:25.544Z,94.78
2018-11-21T06:52:25.577Z,94.25
2018-11-21T06:53:25.540Z,94.15
2018-11-21T06:54:25.507Z,94.35
2018-11-21T06:55:25.497Z,94.15
2018-11-21T06:56:25.495Z,94.04
2018-11-21T06:57:25.528Z,94.15
2018-11-21T06:58:25.721Z,94.15
2018-11-21T06:59:25.487Z,94.35
2018-11-21T07:00:25.465Z,94.25
2018-11-21T07:01:25.453Z,94.57
2018-11-21T07:02:25.430Z,94.46
2018-11-21T07:03:25.415Z,94.04
2018-11-21T07:04:25.445Z,94.46
2018-11-21T07:05:25.390Z,94.67
2018-11-21T07:06:25.396Z,94.25
2018-11-21T07:07:25.368Z,94.15
2018-11-21T07:08:25.357Z,94.57
2018-11-21T07:09:25.350Z,94.46
2018-11-21T07:10:25.619Z,94.46
2018-11-21T07:11:25.335Z,94.35
2018-11-21T07:12:25.321Z,94.04
2018-11-21T07:13:25.309Z,93.94
2018-11-21T07:14:25.303Z,94.15
2018-11-21T07:15:25.293Z,94.25
2018-11-21T07:16:25.319Z,94.25
2018-11-21T07:17:25.264Z,94.04
2018-11-21T07:18:25.265Z,93.63
2018-11-21T07:19:25.293Z,93.52
2018-11-21T07:20:25.399Z,93.52
2018-11-21T07:21:25.229Z,93.73
2018-11-21T07:22:25.253Z,93.52
2018-11-21T07:23:25.201Z,93.84
2018-11-21T07:24:26.390Z,93.84
2018-11-21T07:25:25.182Z,93.52
2018-11-21T07:26:25.176Z,93.21
2018-11-21T07:27:25.175Z,93.41
2018-11-21T07:28:25.226Z,93.63
2018-11-21T07:29:25.141Z,93.37
2018-11-21T07:30:25.179Z,93.52
2018-11-21T07:31:25.132Z,92.96
2018-11-21T07:32:25.103Z,93.21
2018-11-21T07:33:25.100Z,93.27
2018-11-21T07:34:25.141Z,93.48
2018-11-21T07:35:25.084Z,93.37
2018-11-21T07:36:25.065Z,93.10
2018-11-21T07:37:25.062Z,92.90
2018-11-21T07:38:25.044Z,93.21
2018-11-21T07:39:25.029Z,93.10
2018-11-21T07:40:25.062Z,93.00
2018-11-21T07:41:25.036Z,93.06
2018-11-21T07:42:25.007Z,93.10
2018-11-21T07:43:25.033Z,93.00
2018-11-21T07:44:24.988Z,93.21
2018-11-21T07:45:24.999Z,92.96
2018-11-21T07:46:25.028Z,93.00
2018-11-21T07:47:26.680Z,92.90
2018-11-21T07:48:24.943Z,93.10
2018-11-21T07:49:24.929Z,93.00
2018-11-21T07:50:24.937Z,92.90
2018-11-21T07:51:24.924Z,93.10
2018-11-21T07:52:24.932Z,93.21
2018-11-21T07:53:24.884Z,92.90
2018-11-21T07:54:24.876Z,93.10
2018-11-21T07:55:24.880Z,93.21
2018-11-21T07:56:24.858Z,92.90
2018-11-21T07:57:24.843Z,93.41
2018-11-21T07:58:24.880Z,93.31
2018-11-21T07:59:24.817Z,93.35
2018-11-21T08:00:24.811Z,93.21
2018-11-21T08:01:24.825Z,93.41
2018-11-21T08:02:24.788Z,93.73
2018-11-21T08:03:24.780Z,93.67
2018-11-21T08:04:24.818Z,93.31
2018-11-21T08:05:24.759Z,93.84
2018-11-21T08:06:24.751Z,93.84
2018-11-21T08:07:24.734Z,93.77
2018-11-21T08:08:24.742Z,93.84
2018-11-21T08:09:24.716Z,93.73
2018-11-21T08:10:24.752Z,93.88
2018-11-21T08:11:24.712Z,93.73
2018-11-21T08:12:24.685Z,93.77
2018-11-21T08:13:24.681Z,93.41
2018-11-21T08:14:24.664Z,93.41
2018-11-21T08:15:24.655Z,93.46
2018-11-21T08:16:24.719Z,93.73
2018-11-21T08:17:24.641Z,93.77
2018-11-21T08:18:24.615Z,93.52
2018-11-21T08:19:24.615Z,93.41
2018-11-21T08:20:24.598Z,92.90
2018-11-21T08:21:25.628Z,93.73
2018-11-21T08:22:26.128Z,93.46
2018-11-21T08:23:24.582Z,93.41
2018-11-21T08:24:24.569Z,93.52
2018-11-21T08:25:24.543Z,93.84
2018-11-21T08:26:24.535Z,93.73
2018-11-21T08:27:24.524Z,93.52
2018-11-21T08:28:24.601Z,93.52
2018-11-21T08:29:24.507Z,93.41
2018-11-21T08:30:24.494Z,93.52
2018-11-21T08:31:24.494Z,93.41
2018-11-21T08:32:24.480Z,93.31
2018-11-21T08:33:24.472Z,93.31
2018-11-21T08:34:24.479Z,93.41
2018-11-21T08:35:24.448Z,93.63
2018-11-21T08:36:24.461Z,93.06
2018-11-21T08:37:24.428Z,93.16
2018-11-21T08:38:24.429Z,93.06
2018-11-21T08:39:24.395Z,93.37
2018-11-21T08:40:24.459Z,92.44
2018-11-21T08:41:24.368Z,92.40
2018-11-21T08:42:24.358Z,92.18
2018-11-21T08:43:24.371Z,92.08
2018-11-21T08:44:24.386Z,92.03
2018-11-21T08:45:24.347Z,91.83
2018-11-21T08:46:24.355Z,91.77
2018-11-21T08:47:24.330Z,91.20
2018-11-21T08:48:24.293Z,90.75
2018-11-21T08:49:24.305Z,91.00
2018-11-21T08:50:24.274Z,91.06
2018-11-21T08:51:24.304Z,91.06
2018-11-21T08:52:24.314Z,90.54
2018-11-21T08:53:24.239Z,89.70
2018-11-21T08:54:24.229Z,89.76
2018-11-21T08:55:24.237Z,89.66
2018-11-21T08:56:24.206Z,89.14
2018-11-21T08:57:24.204Z,88.52
2018-11-21T08:58:24.230Z,89.45
2018-11-21T08:59:24.183Z,89.25
2018-11-21T09:00:24.169Z,88.83
2018-11-21T09:01:24.154Z,89.04
2018-11-21T09:02:24.144Z,89.20
2018-11-21T09:03:24.165Z,88.89
2018-11-21T09:04:24.170Z,88.79
2018-11-21T09:05:24.111Z,89.00
2018-11-21T09:06:24.105Z,89.04
2018-11-21T09:07:24.098Z,88.89
2018-11-21T09:08:24.083Z,89.25
2018-11-21T09:09:24.080Z,89.14
2018-11-21T09:10:24.146Z,89.04
2018-11-21T09:11:24.050Z,89.14
2018-11-21T09:12:24.036Z,88.83
2018-11-21T09:13:24.031Z,88.93
2018-11-21T09:14:24.013Z,89.14
2018-11-21T09:15:24.006Z,89.18
2018-11-21T09:16:24.047Z,89.29
2018-11-21T09:17:23.982Z,89.29
2018-11-21T09:18:23.968Z,89.50
2018-11-21T09:19:23.960Z,89.50
2018-11-21T09:20:23.950Z,90.19
2018-11-21T09:21:23.937Z,89.91
2018-11-21T09:22:24.021Z,89.81
2018-11-21T09:23:23.939Z,89.50
2018-11-21T09:24:23.924Z,89.76
2018-11-21T09:25:23.900Z,89.60
2018-11-21T09:26:23.899Z,89.76
2018-11-21T09:27:23.883Z,89.66
2018-11-21T09:28:23.953Z,89.14
2018-11-21T09:29:24.611Z,89.04
2018-11-21T09:30:23.850Z,88.68
2018-11-21T09:31:23.833Z,88.68
2018-11-21T09:32:23.831Z,88.79
2018-11-21T09:33:23.807Z,88.58
2018-11-21T09:34:23.830Z,88.89
2018-11-21T09:35:23.798Z,88.85
2018-11-21T09:36:23.809Z,89.06
2018-11-21T09:37:23.767Z,89.27
2018-11-21T09:38:23.763Z,89.27
2018-11-21T09:39:23.748Z,88.33
2018-11-21T09:40:23.785Z,88.19
2018-11-21T09:41:23.747Z,88.19
2018-11-21T09:42:23.713Z,87.77
2018-11-21T09:43:23.699Z,87.56
2018-11-21T09:44:23.697Z,87.98
2018-11-21T09:45:23.676Z,87.88
2018-11-21T09:46:23.721Z,87.15
2018-11-21T09:47:24.203Z,87.35
2018-11-21T09:48:23.646Z,86.94
2018-11-21T09:49:23.641Z,87.35
2018-11-21T09:50:23.628Z,87.11
2018-11-21T09:51:23.617Z,87.11
2018-11-21T09:52:23.645Z,86.80
2018-11-21T09:53:23.594Z,87.11
2018-11-21T09:54:23.589Z,86.17
2018-11-21T09:55:23.583Z,86.59
2018-11-21T09:56:23.571Z,86.34
2018-11-21T09:57:23.546Z,86.13
2018-11-21T09:58:23.593Z,86.34
2018-11-21T09:59:23.532Z,86.34
2018-11-21T10:00:23.525Z,85.68
2018-11-21T10:01:23.508Z,85.36
2018-11-21T10:02:23.500Z,85.68
2018-11-21T10:03:23.491Z,85.12
2018-11-21T10:04:23.531Z,84.56
2018-11-21T10:05:23.467Z,84.15
2018-11-21T10:06:23.456Z,83.94
2018-11-21T10:07:23.438Z,83.48
2018-11-21T10:08:23.434Z,82.45
2018-11-21T10:09:23.417Z,82.03
2018-11-21T10:10:23.441Z,81.51
2018-11-21T10:11:23.403Z,81.41
2018-11-21T10:12:23.402Z,81.30
2018-11-21T10:13:23.393Z,81.30
2018-11-21T10:14:23.368Z,80.85
2018-11-21T10:15:23.351Z,80.54
2018-11-21T10:16:23.390Z,80.65
2018-11-21T10:17:23.331Z,79.78
2018-11-21T10:18:23.321Z,80.61
2018-11-21T10:19:23.323Z,79.68
2018-11-21T10:20:23.297Z,79.33
2018-11-21T10:21:23.289Z,79.02
2018-11-21T10:22:23.347Z,78.50
2018-11-21T10:23:23.265Z,78.09
2018-11-21T10:24:23.253Z,78.92
2018-11-21T10:25:23.253Z,79.23
2018-11-21T10:26:23.233Z,78.92
2018-11-21T10:27:23.225Z,78.71
2018-11-21T10:28:23.262Z,78.71
2018-11-21T10:29:23.204Z,78.85
2018-11-21T10:30:23.194Z,78.64
2018-11-21T10:31:23.181Z,78.33
2018-11-21T10:32:23.173Z,78.33
2018-11-21T10:33:23.183Z,78.85
2018-11-21T10:34:23.215Z,79.58
2018-11-21T10:35:23.138Z,79.58
2018-11-21T10:36:23.123Z,79.16
2018-11-21T10:37:23.114Z,79.27
2018-11-21T10:38:23.112Z,79.37
2018-11-21T10:39:23.108Z,79.06
2018-11-21T10:40:23.132Z,79.61
2018-11-21T10:41:23.070Z,79.30
2018-11-21T10:42:23.059Z,79.51
2018-11-21T10:43:26.433Z,79.61
2018-11-21T10:44:23.037Z,79.20
2018-11-21T10:45:23.040Z,79.51
2018-11-21T10:46:23.081Z,79.92
2018-11-21T10:47:23.004Z,80.06
2018-11-21T10:48:22.994Z,80.47
2018-11-21T10:49:22.988Z,80.27
2018-11-21T10:51:22.963Z,80.13
2018-11-21T10:52:23.008Z,79.75
2018-11-21T10:53:22.966Z,79.71
2018-11-21T10:54:22.928Z,79.51
2018-11-21T10:55:22.920Z,79.61
2018-11-21T10:56:22.909Z,79.61
2018-11-21T10:57:22.905Z,79.47
2018-11-21T10:58:22.954Z,78.19
2018-11-21T10:59:22.889Z,78.44
2018-11-21T11:00:22.869Z,77.78
2018-11-21T11:01:22.882Z,77.57
2018-11-21T11:02:22.849Z,77.12
2018-11-21T11:03:22.843Z,77.33
2018-11-21T11:04:22.903Z,77.01
2018-11-21T11:05:22.818Z,76.91
2018-11-21T11:06:22.811Z,77.22
2018-11-21T11:07:22.804Z,77.01
2018-11-21T11:08:22.780Z,77.12
2018-11-21T11:09:22.780Z,76.81
2018-11-21T11:10:22.808Z,77.33
2018-11-21T11:11:22.747Z,77.22
2018-11-21T11:12:22.733Z,77.15
2018-11-21T11:13:22.728Z,77.36
2018-11-21T11:14:22.733Z,78.02
2018-11-21T11:15:22.721Z,78.54
2018-11-21T11:16:22.733Z,78.47
2018-11-21T11:17:22.692Z,78.89
2018-11-21T11:18:22.675Z,78.99
2018-11-21T11:19:22.664Z,79.20
2018-11-21T11:20:22.653Z,79.16
2018-11-21T11:21:22.637Z,78.68
2018-11-21T11:22:22.656Z,77.92
2018-11-21T11:23:22.660Z,78.44
2018-11-21T11:24:22.607Z,78.37
2018-11-21T11:25:22.618Z,78.37
2018-11-21T11:26:22.586Z,77.95
2018-11-21T11:27:22.571Z,78.54
2018-11-21T11:28:22.635Z,77.71
2018-11-21T11:29:22.568Z,78.06
2018-11-21T11:30:22.548Z,78.68
2018-11-21T11:31:22.524Z,78.27
2018-11-21T11:32:22.536Z,78.33
2018-11-21T11:33:22.526Z,78.33
2018-11-21T11:34:22.557Z,78.12
2018-11-21T11:35:22.484Z,77.92
2018-11-21T11:36:22.479Z,77.92
2018-11-21T11:37:22.472Z,77.81
2018-11-21T11:38:22.466Z,77.61
2018-11-21T11:39:22.439Z,77.09
2018-11-21T11:40:22.479Z,77.57
2018-11-21T11:41:22.444Z,77.71
2018-11-21T11:42:22.413Z,77.81
2018-11-21T11:43:22.404Z,77.71
2018-11-21T11:44:22.387Z,77.47
2018-11-21T11:45:22.375Z,76.95
2018-11-21T11:46:22.417Z,77.36
2018-11-21T11:47:22.368Z,77.05
2018-11-21T11:48:22.372Z,77.26
2018-11-21T11:49:22.341Z,76.84
2018-11-21T11:50:22.323Z,76.95
2018-11-21T11:51:22.320Z,77.15
2018-11-21T11:52:22.358Z,77.26
2018-11-21T11:53:22.283Z,77.67
2018-11-21T11:54:22.281Z,77.47
2018-11-21T11:55:22.276Z,77.50
2018-11-21T11:56:22.252Z,77.05
2018-11-21T11:57:22.238Z,76.98
2018-11-21T11:58:22.280Z,77.29
2018-11-21T11:59:22.224Z,77.61
2018-11-21T12:00:22.210Z,77.71
2018-11-21T12:01:22.204Z,77.75
2018-11-21T12:02:22.184Z,78.16
2018-11-21T12:03:22.175Z,78.58
2018-11-21T12:04:22.378Z,78.58
2018-11-21T12:05:22.153Z,78.58
2018-11-21T12:06:22.145Z,78.47
2018-11-21T12:07:22.145Z,78.99
2018-11-21T12:08:22.166Z,78.47
2018-11-21T12:09:22.111Z,78.16
2018-11-21T12:10:22.146Z,78.96
2018-11-21T12:11:22.106Z,78.54
2018-11-21T12:12:22.100Z,77.92
2018-11-21T12:13:22.080Z,77.92
2018-11-21T12:14:22.058Z,77.81
2018-11-21T12:15:22.046Z,77.95
2018-11-21T12:16:22.093Z,78.54
2018-11-21T12:17:22.043Z,78.47
2018-11-21T12:18:22.014Z,78.47
2018-11-21T12:19:22.007Z,79.10
2018-11-21T12:20:22.017Z,78.47
2018-11-21T12:21:21.990Z,78.27
2018-11-21T12:22:22.039Z,78.51
2018-11-21T12:23:21.968Z,78.51
2018-11-21T12:24:21.957Z,78.92
2018-11-21T12:25:21.935Z,78.92
2018-11-21T12:26:21.959Z,79.24
2018-11-21T12:27:21.918Z,79.65
2018-11-21T12:28:21.982Z,79.90
2018-11-21T12:29:21.903Z,79.48
2018-11-21T12:30:21.899Z,79.48
2018-11-21T12:31:21.885Z,79.58
2018-11-21T12:32:21.860Z,79.27
2018-11-21T12:33:21.851Z,80.21
2018-11-21T12:34:21.885Z,78.96
2018-11-21T12:35:21.832Z,79.48
2018-11-21T12:36:21.830Z,79.90
2018-11-21T12:37:21.810Z,79.06
2018-11-21T12:38:21.829Z,79.58
2018-11-21T12:39:21.808Z,79.69
2018-11-21T12:40:21.825Z,79.58
2018-11-21T12:41:21.768Z,80.31
2018-11-21T12:42:21.781Z,79.48
2018-11-21T12:43:21.752Z,79.72
2018-11-21T12:44:21.726Z,80.45
2018-11-21T12:45:21.717Z,80.45
2018-11-21T12:46:21.769Z,80.24
2018-11-21T12:47:21.704Z,80.97
2018-11-21T12:48:21.713Z,80.66
2018-11-21T12:49:21.674Z,80.76
2018-11-21T12:50:21.667Z,80.66
2018-11-21T12:51:21.691Z,80.31
2018-11-21T12:52:21.690Z,79.83
2018-11-21T12:53:21.655Z,80.45